Terminal Aerodrome Forecast
Issued by NWS Buffalo, NY

Home | Current Version | Previous Version | Text Only | Print | Product List | Glossary On
Versions: 1 2 3 4 5 6 7 8 9 10 11 12 13 14 15 16 17 18 19 20 21 22 23 24
000
FTUS41 KBUF 240903 AAA
TAFROC
TAF AMD
KROC 240903Z 2409/2506 18010KT P6SM OVC070 WS020/23040KT
     FM241100 19010KT 6SM -RA OVC035 WS020/24045KT
     FM241500 20012KT P6SM VCSH OVC035 WS020/25050KT
     FM241800 25014G22KT P6SM OVC035 WS020/25050KT
     FM242300 25012KT P6SM OVC025
     FM250200 01005KT 3SM -RA BR OVC005=

USA.gov is the U.S. government's official web portal to all federal, state and local government web resources and services.